Aviation Digital Data Service (ADDS)

Output produced by TAFs form (0222 UTC 06 May 2015)
found at http://www.aviationweather.gov/adds/tafs/
 
KGFL 052331Z 0600/0624 VRB03KT P6SM BKN200 
     FM061500 VRB03KT P6SM SCT060